createdAt,value
2019-05-03T00:00:16.381Z,68.15
2019-05-03T00:03:02.322Z,68.59
2019-05-03T00:05:42.237Z,68.97
2019-05-03T00:08:12.653Z,69.44
2019-05-03T00:10:42.625Z,70.12
2019-05-03T00:13:12.476Z,70.33
2019-05-03T00:16:12.118Z,70.57
2019-05-03T00:18:42.217Z,70.83
2019-05-03T00:21:11.766Z,71.94
2019-05-03T00:23:41.900Z,73.03
2019-05-03T00:26:11.970Z,73.40
2019-05-03T00:28:42.660Z,73.27
2019-05-03T00:31:12.595Z,72.50
2019-05-03T00:33:43.815Z,73.47
2019-05-03T00:36:19.588Z,73.66
2019-05-03T00:38:49.922Z,73.92
2019-05-03T00:41:21.561Z,74.46
2019-05-03T00:43:51.840Z,75.00
2019-05-03T00:46:22.053Z,74.99
2019-05-03T00:48:52.460Z,75.14
2019-05-03T00:51:22.607Z,75.06
2019-05-03T00:53:53.094Z,75.45
2019-05-03T00:56:22.571Z,75.82
2019-05-03T00:58:55.486Z,75.28
2019-05-03T01:01:24.799Z,76.28
2019-05-03T01:03:54.096Z,77.23
2019-05-03T01:06:23.489Z,76.64
2019-05-03T01:08:52.784Z,75.60
2019-05-03T01:11:22.431Z,75.53
2019-05-03T01:13:52.306Z,75.58
2019-05-03T01:16:22.776Z,76.58
2019-05-03T01:18:52.448Z,76.88
2019-05-03T01:21:22.502Z,76.61
2019-05-03T01:23:52.678Z,77.36
2019-05-03T01:26:22.705Z,77.98
2019-05-03T01:28:52.399Z,78.35
2019-05-03T01:31:22.856Z,77.82
2019-05-03T01:33:52.402Z,78.19
2019-05-03T01:36:23.119Z,77.86
2019-05-03T01:38:52.983Z,78.22
2019-05-03T01:41:22.584Z,78.15
2019-05-03T01:43:52.584Z,77.69
2019-05-03T01:46:22.799Z,78.42
2019-05-03T01:49:17.227Z,79.16
2019-05-03T01:52:14.589Z,79.36
2019-05-03T01:54:43.890Z,79.58
2019-05-03T01:57:13.193Z,80.09
2019-05-03T01:59:42.689Z,79.79
2019-05-03T02:02:32.435Z,79.43
2019-05-03T02:05:19.352Z,78.84
2019-05-03T02:07:48.817Z,79.71
2019-05-03T02:10:18.263Z,79.32
2019-05-03T02:12:47.558Z,80.51
2019-05-03T02:15:16.806Z,80.08
2019-05-03T02:17:46.091Z,79.51
2019-05-03T02:20:15.465Z,80.64
2019-05-03T02:22:44.780Z,80.84
2019-05-03T02:25:14.039Z,79.78
2019-05-03T02:27:43.469Z,79.81
2019-05-03T02:30:14.378Z,80.50
2019-05-03T02:32:53.550Z,80.22
2019-05-03T02:35:22.943Z,80.66
2019-05-03T02:37:55.517Z,80.64
2019-05-03T02:40:25.409Z,79.90
2019-05-03T02:43:11.463Z,79.88
2019-05-03T02:45:50.493Z,80.64
2019-05-03T02:48:30.600Z,80.51
2019-05-03T02:50:59.892Z,80.56
2019-05-03T02:53:29.186Z,80.99
2019-05-03T02:56:13.795Z,81.54
2019-05-03T02:58:29.485Z,81.48
2019-05-03T03:01:01.547Z,81.49
2019-05-03T03:03:32.303Z,81.37
2019-05-03T03:06:06.361Z,79.48
2019-05-03T03:08:36.790Z,79.83
2019-05-03T03:11:07.485Z,79.53
2019-05-03T03:13:47.811Z,79.99
2019-05-03T03:16:20.581Z,80.51
2019-05-03T03:18:50.344Z,80.79
2019-05-03T03:21:22.992Z,80.93
2019-05-03T03:24:07.239Z,81.05
2019-05-03T03:26:42.876Z,80.69
2019-05-03T03:29:11.100Z,81.05
2019-05-03T03:32:29.026Z,81.24
2019-05-03T03:35:14.885Z,81.19
2019-05-03T03:37:46.205Z,80.75
2019-05-03T03:40:18.631Z,81.67
2019-05-03T03:42:51.245Z,81.53
2019-05-03T03:45:20.628Z,79.88
2019-05-03T03:47:56.230Z,79.86
2019-05-03T03:50:26.327Z,80.56
2019-05-03T03:52:58.918Z,81.38
2019-05-03T03:55:37.493Z,81.73
2019-05-03T03:58:06.847Z,80.98
2019-05-03T04:00:36.462Z,81.40
2019-05-03T04:03:06.081Z,81.76
2019-05-03T04:05:36.074Z,80.29
2019-05-03T04:08:05.856Z,80.48
2019-05-03T04:10:35.668Z,80.23
2019-05-03T04:13:06.869Z,79.97
2019-05-03T04:15:58.715Z,80.77
2019-05-03T04:18:36.749Z,80.53
2019-05-03T04:21:06.320Z,79.84
2019-05-03T04:23:36.011Z,78.97
2019-05-03T04:26:07.097Z,79.56
2019-05-03T04:28:37.959Z,79.33
2019-05-03T04:31:07.318Z,80.03
2019-05-03T04:33:36.690Z,79.60
2019-05-03T04:36:06.248Z,79.31
2019-05-03T04:38:35.786Z,79.87
2019-05-03T04:41:06.096Z,79.25
2019-05-03T04:43:37.245Z,79.13
2019-05-03T04:46:10.900Z,79.55
2019-05-03T04:48:40.206Z,79.58
2019-05-03T04:51:09.506Z,79.57
2019-05-03T04:53:41.465Z,79.46
2019-05-03T04:56:10.719Z,80.17
2019-05-03T04:58:40.850Z,79.25
2019-05-03T05:01:15.795Z,79.12
2019-05-03T05:03:45.764Z,79.12
2019-05-03T05:06:18.727Z,79.08
2019-05-03T05:08:55.002Z,78.50
2019-05-03T05:11:26.390Z,77.97
2019-05-03T05:13:56.201Z,77.82
2019-05-03T05:16:40.433Z,77.41
2019-05-03T05:19:10.454Z,77.42
2019-05-03T05:21:48.714Z,77.32
2019-05-03T05:24:18.722Z,77.20
2019-05-03T05:27:07.743Z,76.73
2019-05-03T05:29:38.425Z,77.24
2019-05-03T05:32:08.936Z,77.39
2019-05-03T05:34:40.191Z,77.89
2019-05-03T05:37:11.241Z,77.73
2019-05-03T05:39:42.253Z,76.30
2019-05-03T05:42:12.185Z,76.91
2019-05-03T05:44:45.233Z,76.35
2019-05-03T05:47:39.752Z,76.71
2019-05-03T05:50:31.949Z,76.67
2019-05-03T05:53:01.968Z,76.68
2019-05-03T05:55:56.526Z,76.69
2019-05-03T05:58:30.289Z,77.27
2019-05-03T06:01:07.052Z,77.69
2019-05-03T06:03:36.366Z,77.77
2019-05-03T06:06:07.646Z,77.79
2019-05-03T06:08:46.122Z,77.74
2019-05-03T06:11:29.970Z,77.46
2019-05-03T06:14:05.030Z,78.06
2019-05-03T06:16:47.880Z,77.71
2019-05-03T06:19:25.300Z,77.56
2019-05-03T06:22:19.649Z,78.20
2019-05-03T06:24:55.746Z,76.14
2019-05-03T06:27:35.355Z,75.65
2019-05-03T06:30:22.589Z,74.85
2019-05-03T06:32:51.865Z,74.87
2019-05-03T06:35:21.190Z,76.05
2019-05-03T06:37:50.492Z,76.31
2019-05-03T06:40:19.794Z,76.05
2019-05-03T06:42:54.585Z,75.47
2019-05-03T06:45:20.090Z,76.19
2019-05-03T06:47:50.040Z,76.05
2019-05-03T06:50:24.182Z,75.39
2019-05-03T06:52:50.561Z,76.43
2019-05-03T06:55:19.830Z,77.34
2019-05-03T06:57:49.898Z,78.27
2019-05-03T07:00:46.747Z,79.18
2019-05-03T07:03:45.558Z,79.42
2019-05-03T07:06:52.013Z,79.86
2019-05-03T07:09:26.871Z,79.60
2019-05-03T07:11:56.121Z,79.82
2019-05-03T07:14:25.403Z,80.01
2019-05-03T07:16:55.391Z,75.88
2019-05-03T07:19:27.068Z,73.86
2019-05-03T07:21:56.316Z,72.55
2019-05-03T07:24:25.592Z,71.93
2019-05-03T07:26:55.183Z,71.92
2019-05-03T07:29:25.518Z,71.34
2019-05-03T07:31:55.012Z,71.72
2019-05-03T07:34:24.757Z,71.19
2019-05-03T07:36:55.521Z,71.14
2019-05-03T07:39:24.843Z,71.52
2019-05-03T07:41:55.091Z,72.06
2019-05-03T07:44:25.513Z,71.58
2019-05-03T07:46:55.560Z,71.93
2019-05-03T07:49:25.116Z,71.45
2019-05-03T07:51:55.342Z,71.90
2019-05-03T07:54:24.987Z,71.00
2019-05-03T07:57:02.668Z,70.40
2019-05-03T07:59:31.922Z,70.03
2019-05-03T08:02:01.216Z,70.03
2019-05-03T08:04:30.490Z,69.98
2019-05-03T08:06:59.798Z,68.73
2019-05-03T08:09:29.094Z,68.64
2019-05-03T08:11:58.880Z,67.35
2019-05-03T08:14:28.178Z,66.18
2019-05-03T08:16:57.481Z,67.54
2019-05-03T08:19:27.204Z,69.31
2019-05-03T08:21:56.805Z,68.59
2019-05-03T08:24:26.203Z,68.48
2019-05-03T08:26:55.864Z,67.38
2019-05-03T08:29:26.582Z,66.99
2019-05-03T08:32:21.092Z,66.02
2019-05-03T08:35:08.371Z,65.65
2019-05-03T08:37:57.916Z,63.53
2019-05-03T08:40:30.243Z,60.07
2019-05-03T08:42:59.531Z,60.48
2019-05-03T08:45:28.827Z,60.28
2019-05-03T08:47:58.159Z,59.42
2019-05-03T08:50:27.528Z,56.86
2019-05-03T08:52:56.977Z,57.18
2019-05-03T08:55:26.271Z,57.02
2019-05-03T08:57:55.691Z,58.43
2019-05-03T09:00:27.029Z,57.40
2019-05-03T09:02:56.290Z,56.30
2019-05-03T09:05:25.558Z,54.81
2019-05-03T09:07:55.055Z,47.82
2019-05-03T09:10:32.000Z,49.22
2019-05-03T09:13:08.874Z,52.26
2019-05-03T09:15:38.353Z,52.48
2019-05-03T09:18:07.681Z,54.00
2019-05-03T09:20:38.363Z,55.80
2019-05-03T09:23:07.694Z,57.33
2019-05-03T09:25:36.958Z,57.86
2019-05-03T09:28:06.517Z,59.24
2019-05-03T09:30:36.052Z,58.52
2019-05-03T09:33:08.857Z,58.62
2019-05-03T09:35:36.978Z,56.84
2019-05-03T09:38:06.444Z,51.81
2019-05-03T09:40:35.759Z,46.87
2019-05-03T09:43:05.155Z,40.44
2019-05-03T09:45:35.810Z,44.31
2019-05-03T09:48:05.893Z,45.20
2019-05-03T09:50:35.920Z,46.40
2019-05-03T09:53:05.711Z,46.66
2019-05-03T09:55:38.556Z,46.38
2019-05-03T09:58:07.922Z,46.92
2019-05-03T10:00:38.338Z,46.83
2019-05-03T10:03:07.635Z,46.09
2019-05-03T10:05:36.902Z,45.65
2019-05-03T10:08:06.278Z,45.89
2019-05-03T10:10:53.753Z,46.54
2019-05-03T10:13:24.487Z,47.70
2019-05-03T10:15:54.941Z,48.31
2019-05-03T10:18:25.458Z,48.60
2019-05-03T10:20:56.116Z,48.17
2019-05-03T10:23:39.431Z,48.62
2019-05-03T10:26:09.802Z,48.15
2019-05-03T10:28:39.210Z,46.50
2019-05-03T10:31:08.542Z,45.21
2019-05-03T10:33:51.784Z,44.99
2019-05-03T10:36:22.364Z,45.13
2019-05-03T10:38:51.623Z,44.84
2019-05-03T10:41:20.917Z,45.29
2019-05-03T10:43:58.559Z,45.59
2019-05-03T10:46:27.873Z,43.91
2019-05-03T10:48:57.208Z,43.59
2019-05-03T10:51:28.618Z,43.63
2019-05-03T10:53:59.961Z,43.35
2019-05-03T10:56:50.268Z,41.56
2019-05-03T10:59:20.669Z,42.32
2019-05-03T11:02:03.823Z,41.48
2019-05-03T11:04:35.480Z,40.84
2019-05-03T11:07:05.497Z,41.60
2019-05-03T11:09:47.881Z,42.85
2019-05-03T11:12:06.927Z,42.59
2019-05-03T11:14:36.436Z,43.67
2019-05-03T11:17:05.842Z,43.28
2019-05-03T11:19:35.094Z,42.23
2019-05-03T11:22:05.728Z,41.80
2019-05-03T11:24:42.075Z,41.31
2019-05-03T11:27:14.036Z,42.41
2019-05-03T11:29:45.075Z,42.65
2019-05-03T11:32:30.454Z,42.63
2019-05-03T11:35:27.725Z,41.92
2019-05-03T11:38:18.737Z,42.32
2019-05-03T11:40:48.026Z,40.32
2019-05-03T11:43:18.963Z,40.41
2019-05-03T11:45:48.291Z,40.87
2019-05-03T11:48:18.308Z,39.64
2019-05-03T11:50:47.618Z,37.63
2019-05-03T11:53:16.927Z,39.08
2019-05-03T11:55:46.577Z,41.04
2019-05-03T11:58:21.203Z,39.83
2019-05-03T12:01:11.907Z,39.74
2019-05-03T12:03:48.426Z,41.10
2019-05-03T12:06:17.689Z,41.54
2019-05-03T12:08:46.952Z,42.03
2019-05-03T12:11:16.234Z,42.57
2019-05-03T12:13:45.854Z,43.46
2019-05-03T12:16:24.219Z,43.96
2019-05-03T12:18:53.189Z,43.99
2019-05-03T12:21:21.526Z,42.34
2019-05-03T12:23:51.848Z,43.90
2019-05-03T12:26:22.110Z,43.95
2019-05-03T12:28:53.714Z,45.07
2019-05-03T12:31:30.368Z,44.90
2019-05-03T12:33:55.047Z,44.73
2019-05-03T12:36:24.806Z,43.90
2019-05-03T12:38:55.571Z,43.54
2019-05-03T12:41:25.441Z,44.33
2019-05-03T12:43:55.228Z,43.61
2019-05-03T12:46:27.692Z,44.29
2019-05-03T12:48:57.035Z,44.67
2019-05-03T12:51:26.291Z,43.66
2019-05-03T12:53:55.595Z,44.34
2019-05-03T12:56:32.339Z,44.80
2019-05-03T12:59:08.947Z,45.23
2019-05-03T13:01:57.164Z,46.00
2019-05-03T13:04:30.003Z,46.07
2019-05-03T13:07:20.864Z,47.11
2019-05-03T13:09:50.213Z,47.25
2019-05-03T13:12:25.320Z,48.12
2019-05-03T13:14:54.695Z,47.33
2019-05-03T13:17:37.087Z,47.14
2019-05-03T13:20:08.243Z,47.57
2019-05-03T13:22:37.751Z,47.74
2019-05-03T13:25:08.584Z,47.35
2019-05-03T13:27:49.215Z,48.13
2019-05-03T13:30:18.773Z,48.22
2019-05-03T13:32:48.085Z,47.34
2019-05-03T13:35:17.504Z,47.19
2019-05-03T13:37:47.188Z,46.72
2019-05-03T13:40:16.522Z,45.96
2019-05-03T13:42:56.194Z,46.60
2019-05-03T13:45:17.000Z,46.23
2019-05-03T13:47:46.289Z,46.51
2019-05-03T13:50:15.667Z,47.07
2019-05-03T13:52:45.389Z,47.41
2019-05-03T13:55:16.821Z,47.90
2019-05-03T13:57:46.157Z,46.49
2019-05-03T14:00:15.509Z,46.88
2019-05-03T14:02:46.091Z,47.23
2019-05-03T14:05:15.901Z,47.14
2019-05-03T14:07:45.186Z,47.53
2019-05-03T14:10:14.706Z,48.44
2019-05-03T14:12:45.491Z,48.39
2019-05-03T14:15:16.678Z,48.44
2019-05-03T14:17:46.030Z,49.23
2019-05-03T14:20:38.985Z,49.81
2019-05-03T14:23:08.287Z,50.18
2019-05-03T14:25:37.565Z,49.81
2019-05-03T14:28:06.908Z,49.49
2019-05-03T14:30:36.177Z,50.05
2019-05-03T14:33:05.633Z,49.78
2019-05-03T14:35:35.024Z,49.56
2019-05-03T14:38:05.939Z,49.04
2019-05-03T14:40:35.596Z,48.24
2019-05-03T14:43:05.060Z,48.28
2019-05-03T14:45:34.937Z,48.21
2019-05-03T14:48:06.185Z,48.47
2019-05-03T14:50:35.765Z,49.12
2019-05-03T14:53:06.770Z,48.35
2019-05-03T14:55:46.487Z,47.77
2019-05-03T14:58:56.036Z,48.44
2019-05-03T15:01:46.420Z,47.90
2019-05-03T15:04:18.012Z,47.12
2019-05-03T15:06:49.555Z,46.93
2019-05-03T15:09:25.132Z,47.37
2019-05-03T15:11:57.045Z,47.47
2019-05-03T15:14:27.747Z,46.88
2019-05-03T15:16:57.934Z,47.24
2019-05-03T15:19:28.000Z,47.64
2019-05-03T15:21:58.081Z,47.67
2019-05-03T15:24:27.335Z,47.77
2019-05-03T15:26:57.068Z,46.99
2019-05-03T15:29:26.450Z,47.63
2019-05-03T15:31:55.798Z,47.07
2019-05-03T15:34:25.228Z,47.05
2019-05-03T15:36:54.782Z,47.52
2019-05-03T15:39:24.223Z,47.43
2019-05-03T15:41:55.300Z,47.10
2019-05-03T15:44:39.479Z,47.25
2019-05-03T15:47:14.867Z,48.13
2019-05-03T15:49:45.259Z,48.69
2019-05-03T15:52:15.260Z,49.31
2019-05-03T15:54:44.682Z,49.83
2019-05-03T15:57:14.508Z,49.48
2019-05-03T15:59:44.516Z,49.22
2019-05-03T16:02:15.174Z,50.19
2019-05-03T16:04:44.911Z,50.50
2019-05-03T16:07:15.542Z,49.21
2019-05-03T16:09:44.952Z,47.56
2019-05-03T16:12:25.041Z,47.88
2019-05-03T16:14:55.191Z,48.35
2019-05-03T16:17:24.632Z,49.72
2019-05-03T16:19:55.750Z,49.49
2019-05-03T16:22:25.263Z,49.84
2019-05-03T16:24:55.717Z,50.06
2019-05-03T16:27:47.282Z,50.78
2019-05-03T16:30:40.108Z,50.74
2019-05-03T16:33:24.014Z,48.57
2019-05-03T16:35:44.388Z,49.08
2019-05-03T16:38:15.550Z,49.95
2019-05-03T16:41:05.168Z,49.70
2019-05-03T16:43:45.505Z,46.56
2019-05-03T16:46:22.798Z,45.53
2019-05-03T16:49:02.410Z,45.75
2019-05-03T16:51:31.894Z,46.08
2019-05-03T16:54:02.222Z,46.42
2019-05-03T16:56:31.510Z,46.71
2019-05-03T16:59:00.784Z,46.64
2019-05-03T17:01:30.134Z,46.38
2019-05-03T17:04:18.310Z,46.78
2019-05-03T17:07:15.855Z,45.83
2019-05-03T17:09:54.298Z,46.58
2019-05-03T17:12:28.175Z,46.48
2019-05-03T17:14:58.427Z,45.70
2019-05-03T17:17:27.766Z,45.57
2019-05-03T17:19:57.026Z,46.86
2019-05-03T17:22:26.304Z,47.98
2019-05-03T17:25:06.800Z,48.56
2019-05-03T17:27:36.229Z,48.96
2019-05-03T17:30:06.207Z,49.34
2019-05-03T17:32:35.528Z,50.22
2019-05-03T17:35:05.406Z,50.56
2019-05-03T17:37:36.814Z,51.56
2019-05-03T17:40:34.878Z,52.35
2019-05-03T17:43:23.903Z,52.38
2019-05-03T17:45:55.695Z,52.64
2019-05-03T17:48:25.476Z,52.82
2019-05-03T17:50:56.329Z,53.39
2019-05-03T17:53:55.041Z,53.32
2019-05-03T17:56:59.522Z,53.71
2019-05-03T17:59:35.079Z,53.71
2019-05-03T18:02:25.687Z,54.00
2019-05-03T18:05:17.828Z,54.68
2019-05-03T18:08:00.955Z,54.25
2019-05-03T18:10:32.073Z,53.70
2019-05-03T18:13:06.295Z,53.62
2019-05-03T18:15:36.597Z,53.25
2019-05-03T18:18:07.671Z,54.12
2019-05-03T18:20:37.583Z,53.80
2019-05-03T18:23:07.571Z,53.40
2019-05-03T18:25:38.902Z,54.76
2019-05-03T18:28:10.547Z,54.39
2019-05-03T18:30:40.546Z,54.44
2019-05-03T18:33:15.393Z,55.08
2019-05-03T18:35:46.832Z,55.27
2019-05-03T18:38:17.077Z,55.12
2019-05-03T18:40:49.669Z,54.81
2019-05-03T18:43:38.489Z,55.19
2019-05-03T18:46:45.186Z,55.63
2019-05-03T18:49:14.755Z,56.36
2019-05-03T18:51:44.769Z,56.68
2019-05-03T18:54:15.627Z,57.25
2019-05-03T18:56:45.362Z,57.37
2019-05-03T18:59:14.943Z,57.99
2019-05-03T19:01:45.258Z,58.31
2019-05-03T19:04:30.716Z,58.58
2019-05-03T19:07:02.101Z,59.11
2019-05-03T19:09:34.523Z,60.32
2019-05-03T19:12:35.696Z,60.95
2019-05-03T19:15:05.489Z,62.15
2019-05-03T19:17:50.018Z,60.88
2019-05-03T19:20:19.489Z,61.05
2019-05-03T19:22:48.999Z,60.97
2019-05-03T19:25:18.913Z,60.83
2019-05-03T19:27:50.605Z,60.99
2019-05-03T19:30:22.001Z,61.42
2019-05-03T19:32:52.337Z,62.34
2019-05-03T19:35:22.309Z,61.95
2019-05-03T19:38:02.027Z,62.78
2019-05-03T19:40:31.996Z,62.85
2019-05-03T19:43:03.291Z,63.01
2019-05-03T19:45:35.287Z,63.36
2019-05-03T19:48:06.273Z,63.54
2019-05-03T19:50:36.586Z,64.28
2019-05-03T19:53:15.778Z,64.21
2019-05-03T19:55:50.386Z,64.60
2019-05-03T19:58:16.252Z,65.64
2019-05-03T20:01:09.320Z,65.31
2019-05-03T20:03:48.870Z,65.06
2019-05-03T20:06:55.556Z,65.37
2019-05-03T20:09:25.783Z,65.78
2019-05-03T20:11:55.770Z,66.09
2019-05-03T20:14:25.893Z,65.92
2019-05-03T20:16:55.162Z,65.87
2019-05-03T20:19:25.626Z,66.07
2019-05-03T20:21:56.729Z,66.22
2019-05-03T20:24:26.295Z,66.93
2019-05-03T20:26:55.564Z,66.43
2019-05-03T20:29:25.130Z,65.73
2019-05-03T20:31:55.190Z,64.32
2019-05-03T20:34:27.271Z,62.84
2019-05-03T20:36:56.810Z,61.02
2019-05-03T20:39:26.621Z,62.62
2019-05-03T20:41:56.494Z,61.03
2019-05-03T20:44:41.410Z,60.65
2019-05-03T20:47:15.930Z,60.75
2019-05-03T20:49:48.256Z,61.78
2019-05-03T20:52:17.602Z,61.15
2019-05-03T20:54:47.028Z,60.86
2019-05-03T20:57:16.287Z,60.15
2019-05-03T20:59:55.064Z,60.16
2019-05-03T21:02:26.070Z,60.18
2019-05-03T21:04:56.037Z,58.47
2019-05-03T21:07:26.001Z,58.65
2019-05-03T21:09:55.639Z,58.76
2019-05-03T21:12:25.714Z,59.51
2019-05-03T21:14:55.666Z,60.09
2019-05-03T21:17:44.994Z,60.93
2019-05-03T21:20:41.071Z,61.41
2019-05-03T21:23:11.962Z,61.67
2019-05-03T21:26:05.589Z,62.25
2019-05-03T21:28:16.198Z,61.00
2019-05-03T21:30:45.631Z,61.50
2019-05-03T21:33:15.738Z,61.81
2019-05-03T21:35:45.331Z,61.65
2019-05-03T21:38:14.694Z,63.20
2019-05-03T21:40:57.435Z,63.88
2019-05-03T21:43:28.995Z,63.63
2019-05-03T21:46:08.772Z,63.15
2019-05-03T21:48:52.264Z,63.83
2019-05-03T21:51:21.947Z,63.73
2019-05-03T21:53:51.784Z,62.77
2019-05-03T21:56:21.366Z,63.10
2019-05-03T21:58:50.637Z,63.16
2019-05-03T22:01:19.990Z,63.80
2019-05-03T22:03:49.353Z,63.03
2019-05-03T22:06:19.051Z,64.20
2019-05-03T22:08:48.340Z,64.27
2019-05-03T22:11:17.601Z,62.89
2019-05-03T22:13:48.545Z,61.74
2019-05-03T22:16:35.731Z,62.12
2019-05-03T22:19:05.769Z,61.97
2019-05-03T22:21:57.130Z,62.20
2019-05-03T22:24:34.289Z,61.39
2019-05-03T22:27:07.501Z,62.54
2019-05-03T22:29:37.960Z,62.46
2019-05-03T22:32:07.645Z,62.21
2019-05-03T23:50:30.314Z,63.44
2019-05-03T23:53:01.396Z,63.00
2019-05-03T23:55:45.298Z,62.79
2019-05-03T23:58:14.568Z,63.00
